createdAt,value
2022-11-29T00:00:18.759Z,94.02
2022-11-29T00:01:18.899Z,94.00
2022-11-29T00:02:19.111Z,94.01
2022-11-29T00:03:19.267Z,94.02
2022-11-29T00:04:19.238Z,94.05
2022-11-29T00:05:19.362Z,94.08
2022-11-29T00:06:19.482Z,94.09
2022-11-29T00:07:19.621Z,94.09
2022-11-29T00:08:19.748Z,94.10
2022-11-29T00:09:19.796Z,94.10
2022-11-29T00:10:19.906Z,94.11
2022-11-29T00:11:20.026Z,94.14
2022-11-29T00:12:20.147Z,94.14
2022-11-29T00:13:20.238Z,94.16
2022-11-29T00:14:20.376Z,94.16
2022-11-29T00:15:20.475Z,94.18
2022-11-29T00:16:20.686Z,94.17
2022-11-29T00:17:20.676Z,94.19
2022-11-29T00:18:20.797Z,94.18
2022-11-29T00:19:20.924Z,94.19
2022-11-29T00:20:21.014Z,94.16
2022-11-29T00:21:21.273Z,94.14
2022-11-29T00:22:21.264Z,94.12
2022-11-29T00:23:21.373Z,94.14
2022-11-29T00:24:21.519Z,94.12
2022-11-29T00:25:21.625Z,94.10
2022-11-29T00:26:21.777Z,94.09
2022-11-29T00:27:21.854Z,94.07
2022-11-29T00:28:21.992Z,94.07
2022-11-29T00:29:22.051Z,94.06
2022-11-29T00:30:22.180Z,94.07
2022-11-29T00:31:22.292Z,94.07
2022-11-29T00:32:22.431Z,94.08
2022-11-29T00:33:22.505Z,94.09
2022-11-29T00:34:22.610Z,94.08
2022-11-29T00:35:22.719Z,94.05
2022-11-29T00:36:22.882Z,94.01
2022-11-29T00:37:22.939Z,94.01
2022-11-29T00:38:24.018Z,93.99
2022-11-29T00:39:23.165Z,94.01
2022-11-29T00:40:23.278Z,93.98
2022-11-29T00:41:23.418Z,93.98
2022-11-29T00:42:23.468Z,93.97
2022-11-29T00:43:23.609Z,93.98
2022-11-29T00:44:23.707Z,93.97
2022-11-29T00:45:23.797Z,93.96
2022-11-29T00:46:23.966Z,93.98
2022-11-29T00:47:24.027Z,93.95
2022-11-29T00:48:24.688Z,93.93
2022-11-29T00:49:24.274Z,93.95
2022-11-29T00:50:24.355Z,93.90
2022-11-29T00:51:24.521Z,93.88
2022-11-29T00:52:24.582Z,93.86
2022-11-29T00:53:24.704Z,93.86
2022-11-29T00:54:24.805Z,93.87
2022-11-29T00:55:24.946Z,93.87
2022-11-29T00:56:25.075Z,93.86
2022-11-29T00:57:25.118Z,93.87
2022-11-29T00:58:25.242Z,93.86
2022-11-29T00:59:25.333Z,93.87
2022-11-29T01:00:25.474Z,93.87
2022-11-29T01:01:25.792Z,93.87
2022-11-29T01:02:25.757Z,93.88
2022-11-29T01:03:25.875Z,93.85
2022-11-29T01:04:26.007Z,93.85
2022-11-29T01:05:26.114Z,93.84
2022-11-29T01:06:26.241Z,93.83
2022-11-29T01:07:26.412Z,93.79
2022-11-29T01:08:26.500Z,93.77
2022-11-29T01:09:26.581Z,93.77
2022-11-29T01:10:26.684Z,93.79
2022-11-29T01:11:26.793Z,93.77
2022-11-29T01:12:26.913Z,93.78
2022-11-29T01:13:27.010Z,93.79
2022-11-29T01:14:27.120Z,93.78
2022-11-29T01:15:27.331Z,93.79
2022-11-29T01:16:27.423Z,93.81
2022-11-29T01:17:27.447Z,93.80
2022-11-29T01:18:27.577Z,93.80
2022-11-29T01:19:27.688Z,93.79
2022-11-29T01:20:27.833Z,93.78
2022-11-29T01:21:28.018Z,93.75
2022-11-29T01:22:28.039Z,93.72
2022-11-29T01:23:28.127Z,93.68
2022-11-29T01:24:28.257Z,93.67
2022-11-29T01:25:28.373Z,93.64
2022-11-29T01:26:28.506Z,93.65
2022-11-29T01:27:28.571Z,93.63
2022-11-29T01:28:28.724Z,93.61
2022-11-29T01:29:28.775Z,93.60
2022-11-29T01:30:28.981Z,93.58
2022-11-29T01:31:29.076Z,93.58
2022-11-29T01:32:29.166Z,93.56
2022-11-29T01:33:29.264Z,93.53
2022-11-29T01:34:29.388Z,93.53
2022-11-29T01:35:29.493Z,93.53
2022-11-29T01:36:29.633Z,93.52
2022-11-29T01:37:29.724Z,93.50
2022-11-29T01:38:29.841Z,93.47
2022-11-29T01:39:29.945Z,93.46
2022-11-29T01:40:30.068Z,93.39
2022-11-29T01:41:30.315Z,93.33
2022-11-29T01:42:30.263Z,93.30
2022-11-29T01:43:30.373Z,93.30
2022-11-29T01:44:30.500Z,93.27
2022-11-29T01:45:30.591Z,93.28
2022-11-29T01:46:31.757Z,93.28
2022-11-29T01:47:30.811Z,93.31
2022-11-29T01:48:30.929Z,93.31
2022-11-29T01:49:31.041Z,93.30
2022-11-29T01:50:31.146Z,93.25
2022-11-29T01:51:31.283Z,93.24
2022-11-29T01:52:31.454Z,93.20
2022-11-29T01:53:31.459Z,93.17
2022-11-29T01:54:31.568Z,93.13
2022-11-29T01:55:31.709Z,93.07
2022-11-29T01:56:31.768Z,93.07
2022-11-29T01:57:31.887Z,93.04
2022-11-29T01:58:31.978Z,93.04
2022-11-29T01:59:32.085Z,93.03
2022-11-29T02:00:32.234Z,93.05
2022-11-29T02:01:32.443Z,93.04
2022-11-29T02:02:32.486Z,93.03
2022-11-29T02:03:32.529Z,93.04
2022-11-29T02:04:32.641Z,93.04
2022-11-29T02:05:32.756Z,93.08
2022-11-29T02:06:32.872Z,93.07
2022-11-29T02:07:33.071Z,93.07
2022-11-29T02:08:33.156Z,93.09
2022-11-29T02:09:33.199Z,93.11
2022-11-29T02:10:33.306Z,93.13
2022-11-29T02:11:33.435Z,93.18
2022-11-29T02:12:33.544Z,93.20
2022-11-29T02:13:33.671Z,93.25
2022-11-29T02:14:33.771Z,93.32
2022-11-29T02:15:33.980Z,93.36
2022-11-29T02:16:34.003Z,93.38
2022-11-29T02:17:34.128Z,93.40
2022-11-29T02:18:34.232Z,93.41
2022-11-29T02:19:34.452Z,93.44
2022-11-29T02:20:34.452Z,93.46
2022-11-29T02:21:34.581Z,93.47
2022-11-29T02:22:34.721Z,93.50
2022-11-29T02:23:34.782Z,93.50
2022-11-29T02:24:34.890Z,93.53
2022-11-29T02:25:35.023Z,93.55
2022-11-29T02:26:35.137Z,93.56
2022-11-29T02:27:35.279Z,93.59
2022-11-29T02:28:35.388Z,93.60
2022-11-29T02:29:35.449Z,93.63
2022-11-29T02:30:35.632Z,93.65
2022-11-29T02:31:35.689Z,93.65
2022-11-29T02:32:35.806Z,93.67
2022-11-29T02:33:35.920Z,93.68
2022-11-29T02:34:36.024Z,93.68
2022-11-29T02:35:36.158Z,93.69
2022-11-29T02:36:36.264Z,93.65
2022-11-29T02:37:36.397Z,93.62
2022-11-29T02:38:36.516Z,93.59
2022-11-29T02:39:36.620Z,93.59
2022-11-29T02:40:36.735Z,93.54
2022-11-29T02:41:36.851Z,93.51
2022-11-29T02:42:36.999Z,93.51
2022-11-29T02:43:37.064Z,93.50
2022-11-29T02:44:37.215Z,93.54
2022-11-29T02:45:37.277Z,93.54
2022-11-29T02:46:37.394Z,93.53
2022-11-29T02:47:37.520Z,93.51
2022-11-29T02:48:37.714Z,93.52
2022-11-29T02:49:37.733Z,93.52
2022-11-29T02:50:37.852Z,93.57
2022-11-29T02:51:37.955Z,93.57
2022-11-29T02:52:38.130Z,93.58
2022-11-29T02:53:38.165Z,93.59
2022-11-29T02:54:38.269Z,93.59
2022-11-29T02:55:38.381Z,93.56
2022-11-29T02:56:38.513Z,93.57
2022-11-29T02:57:38.683Z,93.50
2022-11-29T02:58:38.741Z,93.48
2022-11-29T02:59:38.873Z,93.37
2022-11-29T03:00:38.970Z,93.31
2022-11-29T03:01:39.089Z,93.29
2022-11-29T03:02:39.244Z,93.29
2022-11-29T03:03:39.371Z,93.29
2022-11-29T03:04:39.408Z,93.24
2022-11-29T03:05:39.507Z,93.18
2022-11-29T03:06:39.619Z,93.14
2022-11-29T03:07:39.810Z,93.06
2022-11-29T03:08:39.988Z,93.06
2022-11-29T03:09:39.932Z,93.01
2022-11-29T03:10:40.049Z,92.91
2022-11-29T03:11:40.164Z,92.83
2022-11-29T03:12:40.271Z,92.76
2022-11-29T03:13:40.401Z,92.77
2022-11-29T03:14:40.494Z,92.75
2022-11-29T03:15:40.669Z,92.69
2022-11-29T03:16:43.234Z,92.66
2022-11-29T03:17:40.830Z,92.66
2022-11-29T03:18:40.925Z,92.65
2022-11-29T03:19:41.044Z,92.68
2022-11-29T03:20:41.156Z,92.66
2022-11-29T03:21:41.257Z,92.62
2022-11-29T03:22:41.393Z,92.62
2022-11-29T03:23:41.483Z,92.69
2022-11-29T03:24:41.700Z,92.72
2022-11-29T03:25:41.707Z,92.77
2022-11-29T03:26:41.814Z,92.80
2022-11-29T03:27:41.937Z,92.75
2022-11-29T03:28:42.113Z,92.68
2022-11-29T03:29:42.186Z,92.64
2022-11-29T03:30:42.324Z,92.66
2022-11-29T03:31:42.394Z,92.72
2022-11-29T03:32:42.552Z,92.76
2022-11-29T03:33:42.629Z,92.83
2022-11-29T03:34:43.077Z,92.86
2022-11-29T03:35:42.850Z,92.89
2022-11-29T03:36:42.970Z,92.93
2022-11-29T03:37:43.093Z,92.97
2022-11-29T03:38:43.228Z,92.99
2022-11-29T03:39:43.295Z,93.02
2022-11-29T03:40:43.442Z,93.06
2022-11-29T03:41:43.551Z,93.08
2022-11-29T03:42:43.694Z,93.09
2022-11-29T03:43:43.801Z,93.09
2022-11-29T03:44:44.272Z,93.11
2022-11-29T03:45:44.028Z,93.03
2022-11-29T03:46:44.217Z,92.94
2022-11-29T03:47:44.257Z,92.88
2022-11-29T03:48:44.449Z,92.83
2022-11-29T03:49:44.457Z,92.83
2022-11-29T03:50:44.564Z,92.85
2022-11-29T03:51:44.685Z,92.87
2022-11-29T03:52:44.855Z,92.93
2022-11-29T03:53:44.904Z,92.97
2022-11-29T03:54:45.302Z,93.00
2022-11-29T03:55:45.119Z,93.02
2022-11-29T03:56:45.223Z,93.05
2022-11-29T03:57:45.385Z,93.07
2022-11-29T03:58:45.454Z,93.09
2022-11-29T03:59:45.574Z,93.07
2022-11-29T04:00:45.677Z,93.06
2022-11-29T04:01:45.830Z,93.10
2022-11-29T04:02:45.983Z,93.10
2022-11-29T04:03:46.035Z,93.12
2022-11-29T04:04:46.346Z,93.09
2022-11-29T04:05:46.245Z,93.10
2022-11-29T04:06:46.340Z,93.13
2022-11-29T04:07:46.561Z,93.13
2022-11-29T04:08:46.681Z,93.16
2022-11-29T04:09:46.688Z,93.16
2022-11-29T04:10:46.791Z,93.16
2022-11-29T04:11:46.919Z,93.16
2022-11-29T04:12:47.041Z,93.14
2022-11-29T04:13:47.180Z,93.12
2022-11-29T04:14:47.336Z,93.12
2022-11-29T04:15:47.380Z,93.12
2022-11-29T04:16:47.459Z,93.05
2022-11-29T04:17:47.583Z,93.03
2022-11-29T04:18:47.708Z,93.04
2022-11-29T04:19:47.841Z,93.05
2022-11-29T04:20:48.552Z,93.10
2022-11-29T04:21:48.038Z,93.13
2022-11-29T04:22:48.170Z,93.17
2022-11-29T04:23:48.287Z,93.17
2022-11-29T04:24:48.398Z,93.15
2022-11-29T04:25:48.498Z,93.11
2022-11-29T04:26:48.599Z,93.07
2022-11-29T04:27:48.737Z,92.99
2022-11-29T04:28:48.915Z,92.98
2022-11-29T04:29:48.915Z,92.98
2022-11-29T04:30:49.119Z,93.01
2022-11-29T04:31:49.164Z,93.03
2022-11-29T04:32:49.264Z,93.04
2022-11-29T04:33:49.395Z,93.03
2022-11-29T04:34:49.487Z,92.92
2022-11-29T04:35:49.602Z,92.81
2022-11-29T04:36:49.693Z,92.78
2022-11-29T04:37:49.810Z,92.81
2022-11-29T04:38:49.953Z,92.78
2022-11-29T04:39:50.184Z,92.76
2022-11-29T04:40:50.170Z,92.77
2022-11-29T04:41:50.243Z,92.81
2022-11-29T04:42:50.366Z,92.86
2022-11-29T04:43:50.518Z,92.92
2022-11-29T04:44:50.591Z,92.93
2022-11-29T04:45:50.712Z,92.92
2022-11-29T04:46:50.857Z,92.91
2022-11-29T04:47:50.954Z,92.86
2022-11-29T04:48:51.120Z,92.77
2022-11-29T04:49:51.176Z,92.64
2022-11-29T04:50:51.255Z,92.62
2022-11-29T04:51:51.352Z,92.60
2022-11-29T04:52:51.464Z,92.61
2022-11-29T04:53:51.618Z,92.51
2022-11-29T04:54:51.734Z,92.30
2022-11-29T04:55:51.848Z,92.18
2022-11-29T04:56:51.930Z,92.14
2022-11-29T04:57:52.072Z,92.05
2022-11-29T04:58:52.224Z,92.04
2022-11-29T04:59:52.306Z,92.03
2022-11-29T05:00:52.473Z,91.97
2022-11-29T05:01:52.603Z,91.99
2022-11-29T05:02:52.728Z,91.98
2022-11-29T05:03:57.035Z,91.94
2022-11-29T05:04:52.965Z,92.00
2022-11-29T05:05:53.027Z,91.98
2022-11-29T05:06:53.147Z,91.85
2022-11-29T05:07:53.282Z,91.84
2022-11-29T05:08:53.435Z,91.82
2022-11-29T05:09:54.135Z,91.84
2022-11-29T05:10:53.567Z,91.90
2022-11-29T05:11:53.673Z,91.89
2022-11-29T05:12:53.810Z,91.77
2022-11-29T05:13:53.935Z,91.74
2022-11-29T05:14:54.034Z,91.75
2022-11-29T05:15:54.152Z,91.71
2022-11-29T05:16:54.242Z,91.68
2022-11-29T05:17:54.364Z,91.65
2022-11-29T05:18:54.523Z,91.70
2022-11-29T05:19:54.572Z,91.74
2022-11-29T05:20:54.714Z,91.74
2022-11-29T05:21:54.816Z,91.78
2022-11-29T05:22:54.951Z,91.81
2022-11-29T05:23:55.090Z,91.79
2022-11-29T05:24:55.183Z,91.81
2022-11-29T05:25:55.290Z,91.83
2022-11-29T05:26:55.399Z,91.78
2022-11-29T05:27:55.500Z,91.80
2022-11-29T05:28:57.211Z,91.79
2022-11-29T05:29:55.731Z,91.80
2022-11-29T05:30:55.915Z,91.82
2022-11-29T05:31:55.959Z,91.83
2022-11-29T05:32:56.116Z,91.84
2022-11-29T05:33:56.219Z,91.85
2022-11-29T05:34:56.308Z,91.86
2022-11-29T05:35:56.447Z,91.88
2022-11-29T05:36:56.587Z,91.85
2022-11-29T05:37:56.648Z,91.84
2022-11-29T05:38:56.796Z,91.87
2022-11-29T05:39:56.859Z,91.87
2022-11-29T05:40:56.976Z,91.89
2022-11-29T05:41:57.095Z,91.94
2022-11-29T05:42:57.265Z,91.96
2022-11-29T05:43:57.342Z,91.99
2022-11-29T05:44:57.451Z,92.02
2022-11-29T05:45:57.555Z,92.00
2022-11-29T05:46:57.686Z,91.92
2022-11-29T05:47:57.806Z,91.83
2022-11-29T05:48:57.984Z,91.70
2022-11-29T05:49:58.064Z,91.74
2022-11-29T05:50:58.145Z,91.69
2022-11-29T05:51:58.259Z,91.72
2022-11-29T05:52:58.374Z,91.73
2022-11-29T05:53:58.583Z,91.76
2022-11-29T05:54:58.594Z,91.78
2022-11-29T05:55:58.737Z,91.79
2022-11-29T05:56:58.875Z,91.77
2022-11-29T05:57:58.987Z,91.72
2022-11-29T05:58:59.088Z,91.67
2022-11-29T05:59:59.222Z,91.64
2022-11-29T06:00:59.263Z,91.65
2022-11-29T06:01:59.428Z,91.72
2022-11-29T06:02:59.569Z,91.72
2022-11-29T06:03:59.651Z,91.70
2022-11-29T06:04:59.762Z,91.64
2022-11-29T06:05:59.881Z,91.61
2022-11-29T06:06:59.990Z,91.62
2022-11-29T06:08:00.171Z,91.67
2022-11-29T06:09:00.310Z,91.64
2022-11-29T06:10:01.858Z,91.64
2022-11-29T06:11:00.444Z,91.70
2022-11-29T06:12:00.552Z,91.75
2022-11-29T06:13:00.685Z,91.82
2022-11-29T06:14:00.799Z,91.84
2022-11-29T06:15:00.939Z,91.88
2022-11-29T06:16:01.038Z,91.88
2022-11-29T06:17:01.128Z,91.83
2022-11-29T06:18:01.275Z,91.76
2022-11-29T06:19:01.368Z,91.73
2022-11-29T06:20:01.518Z,91.68
2022-11-29T06:21:01.592Z,91.67
2022-11-29T06:22:01.711Z,91.70
2022-11-29T06:23:01.834Z,91.73
2022-11-29T06:24:01.969Z,91.78
2022-11-29T06:25:02.986Z,91.80
2022-11-29T06:26:04.112Z,91.85
2022-11-29T06:27:02.266Z,91.85
2022-11-29T06:28:02.377Z,91.82
2022-11-29T06:29:04.064Z,91.79
2022-11-29T06:30:02.615Z,91.80
2022-11-29T06:31:02.783Z,91.84
2022-11-29T06:32:02.837Z,91.86
2022-11-29T06:33:02.963Z,91.90
2022-11-29T06:34:03.126Z,91.95
2022-11-29T06:35:03.215Z,91.90
2022-11-29T06:36:03.315Z,91.86
2022-11-29T06:37:03.393Z,91.84
2022-11-29T06:38:03.523Z,91.86
2022-11-29T06:39:03.624Z,91.88
2022-11-29T06:40:03.822Z,91.92
2022-11-29T06:41:03.834Z,91.96
2022-11-29T06:42:03.944Z,92.01
2022-11-29T06:43:04.101Z,92.01
2022-11-29T06:44:04.162Z,92.00
2022-11-29T06:45:04.298Z,91.99
2022-11-29T06:46:04.400Z,92.00
2022-11-29T06:47:04.545Z,92.03
2022-11-29T06:48:04.632Z,92.03
2022-11-29T06:49:07.313Z,92.03
2022-11-29T06:50:04.904Z,92.01
2022-11-29T06:51:04.948Z,92.00
2022-11-29T06:52:05.069Z,92.02
2022-11-29T06:53:05.166Z,92.05
2022-11-29T06:54:05.276Z,92.03
2022-11-29T06:55:05.592Z,92.04
2022-11-29T06:56:05.521Z,92.05
2022-11-29T06:57:05.611Z,92.04
2022-11-29T06:58:05.727Z,91.91
2022-11-29T06:59:05.835Z,91.92
2022-11-29T07:00:06.080Z,91.95
2022-11-29T07:01:06.134Z,91.98
2022-11-29T07:02:06.231Z,92.02
2022-11-29T07:03:06.306Z,92.02
2022-11-29T07:04:06.425Z,92.04
2022-11-29T07:05:06.576Z,92.02
2022-11-29T07:06:06.644Z,91.94
2022-11-29T07:07:06.751Z,91.89
2022-11-29T07:08:06.884Z,91.87
2022-11-29T07:09:07.005Z,91.88
2022-11-29T07:10:12.004Z,91.90
2022-11-29T07:11:08.235Z,91.93
2022-11-29T07:12:07.343Z,91.93
2022-11-29T07:13:07.445Z,91.93
2022-11-29T07:14:07.572Z,91.90
2022-11-29T07:15:07.713Z,91.93
2022-11-29T07:16:07.911Z,91.94
2022-11-29T07:17:07.899Z,91.90
2022-11-29T07:18:08.019Z,91.80
2022-11-29T07:19:08.125Z,91.77
2022-11-29T07:20:08.251Z,91.78
2022-11-29T07:21:08.370Z,91.76
2022-11-29T07:22:08.486Z,91.75
2022-11-29T07:23:08.586Z,91.75
2022-11-29T07:24:08.701Z,91.72
2022-11-29T07:25:08.880Z,91.72
2022-11-29T07:26:08.923Z,91.77
2022-11-29T07:27:09.037Z,91.81
2022-11-29T07:28:09.147Z,91.83
2022-11-29T07:29:09.269Z,91.81
2022-11-29T07:30:09.397Z,91.81
2022-11-29T07:31:09.507Z,91.82
2022-11-29T07:32:09.631Z,91.80
2022-11-29T07:33:09.756Z,91.75
2022-11-29T07:34:09.869Z,91.74
2022-11-29T07:35:10.046Z,91.81
2022-11-29T07:36:10.080Z,91.85
2022-11-29T07:37:10.228Z,91.89
2022-11-29T07:38:10.377Z,91.82
2022-11-29T07:39:10.493Z,91.86
2022-11-29T07:40:10.661Z,91.88
2022-11-29T07:41:10.735Z,91.76
2022-11-29T07:42:10.854Z,91.76
2022-11-29T07:43:10.963Z,91.77
2022-11-29T07:44:11.145Z,91.80
2022-11-29T07:45:11.261Z,91.84
2022-11-29T07:46:11.381Z,91.75
2022-11-29T07:47:11.474Z,91.75
2022-11-29T07:48:11.582Z,91.64
2022-11-29T07:49:11.694Z,91.61
2022-11-29T07:50:11.846Z,91.63
2022-11-29T07:51:12.052Z,91.70
2022-11-29T07:52:12.042Z,91.74
2022-11-29T07:53:12.152Z,91.68
2022-11-29T07:54:12.274Z,91.69
2022-11-29T07:55:18.314Z,91.73
2022-11-29T07:56:13.482Z,91.75
2022-11-29T07:57:12.620Z,91.71
2022-11-29T07:58:12.714Z,91.65
2022-11-29T07:59:12.834Z,91.58
2022-11-29T08:00:12.945Z,91.62
2022-11-29T08:01:13.108Z,91.66
2022-11-29T08:02:13.179Z,91.62
2022-11-29T08:03:13.209Z,91.56
2022-11-29T08:04:13.328Z,91.48
2022-11-29T08:05:13.565Z,91.45
2022-11-29T08:06:13.556Z,91.47
2022-11-29T08:07:13.675Z,91.41
2022-11-29T08:08:13.792Z,91.38
2022-11-29T08:09:13.896Z,91.43
2022-11-29T08:10:14.042Z,91.45
2022-11-29T08:11:14.163Z,91.50
2022-11-29T08:12:14.229Z,91.42
2022-11-29T08:13:14.355Z,91.35
2022-11-29T08:14:14.444Z,91.34
2022-11-29T08:15:14.597Z,91.39
2022-11-29T08:16:14.771Z,91.46
2022-11-29T08:17:14.806Z,91.48
2022-11-29T08:18:14.927Z,91.38
2022-11-29T08:19:15.055Z,91.32
2022-11-29T08:20:15.198Z,91.38
2022-11-29T08:21:15.275Z,91.42
2022-11-29T08:22:15.374Z,91.50
2022-11-29T08:23:15.544Z,91.47
2022-11-29T08:24:15.635Z,91.49
2022-11-29T08:25:15.774Z,91.57
2022-11-29T08:26:15.846Z,91.59
2022-11-29T08:27:15.976Z,91.65
2022-11-29T08:28:16.090Z,91.68
2022-11-29T08:29:16.193Z,91.59
2022-11-29T08:30:16.376Z,91.56
2022-11-29T08:31:16.474Z,91.59
2022-11-29T08:32:16.532Z,91.55
2022-11-29T08:33:16.637Z,91.62
2022-11-29T08:34:16.782Z,91.63
2022-11-29T08:35:16.912Z,91.66
2022-11-29T08:36:17.000Z,91.78
2022-11-29T08:37:17.122Z,91.90
2022-11-29T08:38:17.221Z,92.00
2022-11-29T08:39:17.350Z,92.01
2022-11-29T08:40:17.501Z,91.95
2022-11-29T08:41:17.588Z,91.98
2022-11-29T08:42:17.672Z,91.99
2022-11-29T08:43:17.775Z,92.04
2022-11-29T08:44:17.908Z,92.12
2022-11-29T08:45:18.093Z,92.20
2022-11-29T08:46:18.972Z,92.09
2022-11-29T08:47:18.219Z,92.01
2022-11-29T08:48:18.321Z,92.02
2022-11-29T08:49:18.480Z,92.12
2022-11-29T08:50:18.618Z,92.20
2022-11-29T08:51:18.676Z,92.21
2022-11-29T08:52:18.779Z,92.21
2022-11-29T08:53:18.975Z,92.22
2022-11-29T08:54:19.066Z,92.22
2022-11-29T08:55:19.237Z,92.29
2022-11-29T08:58:20.566Z,92.39
2022-11-29T08:59:19.707Z,92.46
2022-11-29T09:00:19.886Z,92.43
2022-11-29T09:01:20.070Z,92.45
2022-11-29T09:02:20.123Z,92.43
2022-11-29T09:03:20.234Z,92.36
2022-11-29T09:04:20.349Z,92.34
2022-11-29T09:05:20.533Z,92.33
2022-11-29T09:06:20.632Z,92.39
2022-11-29T09:07:20.775Z,92.45
2022-11-29T09:08:20.902Z,92.43
2022-11-29T09:09:21.074Z,92.34
2022-11-29T09:10:21.203Z,92.30
2022-11-29T09:11:21.343Z,92.28
2022-11-29T09:12:21.433Z,92.35
2022-11-29T09:13:21.587Z,92.41
2022-11-29T09:14:21.722Z,92.42
2022-11-29T09:15:21.840Z,92.58
2022-11-29T09:16:21.965Z,92.62
2022-11-29T09:17:22.062Z,92.63
2022-11-29T09:18:22.216Z,92.62
2022-11-29T09:19:22.339Z,92.68
2022-11-29T09:20:22.537Z,92.71
2022-11-29T09:21:22.606Z,92.72
2022-11-29T09:22:22.762Z,92.70
2022-11-29T09:23:22.880Z,92.70
2022-11-29T09:24:23.029Z,92.70
2022-11-29T09:25:23.192Z,92.68
2022-11-29T09:26:23.325Z,92.46
2022-11-29T09:27:23.417Z,92.46
2022-11-29T09:28:23.536Z,92.46
2022-11-29T09:29:23.647Z,92.52
2022-11-29T09:30:24.070Z,92.58
2022-11-29T09:31:23.949Z,92.62
2022-11-29T09:32:24.046Z,92.58
2022-11-29T09:33:24.186Z,92.44
2022-11-29T09:34:24.337Z,92.36
2022-11-29T09:35:24.504Z,92.26
2022-11-29T09:36:28.454Z,92.12
2022-11-29T09:37:24.750Z,92.19
2022-11-29T09:38:24.904Z,92.18
2022-11-29T09:39:25.005Z,92.22
2022-11-29T09:40:25.193Z,92.29
2022-11-29T09:41:25.305Z,92.19
2022-11-29T09:42:25.440Z,92.12
2022-11-29T09:43:25.533Z,92.20
2022-11-29T09:44:25.735Z,92.27
2022-11-29T09:45:25.859Z,92.11
2022-11-29T09:46:25.920Z,92.05
2022-11-29T09:47:26.086Z,92.13
2022-11-29T09:48:26.183Z,92.15
2022-11-29T09:49:26.311Z,92.16
2022-11-29T09:50:26.496Z,92.15
2022-11-29T09:51:26.622Z,92.18
2022-11-29T09:52:26.730Z,92.09
2022-11-29T09:53:26.840Z,92.14
2022-11-29T09:54:26.971Z,92.12
2022-11-29T09:55:27.175Z,92.07
2022-11-29T09:56:27.274Z,91.88
2022-11-29T09:57:27.408Z,91.81
2022-11-29T09:58:27.530Z,91.82
2022-11-29T09:59:27.674Z,91.96
2022-11-29T10:00:27.900Z,91.89
2022-11-29T10:01:27.977Z,91.73
2022-11-29T10:02:28.108Z,91.64
2022-11-29T10:03:28.211Z,91.66
2022-11-29T10:04:28.317Z,91.74
2022-11-29T10:05:28.507Z,91.59
2022-11-29T10:06:28.618Z,91.13
2022-11-29T10:07:28.768Z,90.74
2022-11-29T10:08:29.815Z,90.62
2022-11-29T10:09:33.485Z,90.60
2022-11-29T10:10:30.128Z,90.74
2022-11-29T10:11:29.235Z,90.80
2022-11-29T10:12:29.366Z,90.49
2022-11-29T10:13:29.545Z,90.51
2022-11-29T10:14:29.650Z,90.57
2022-11-29T10:15:29.828Z,90.46
2022-11-29T10:16:29.977Z,90.42
2022-11-29T10:17:30.024Z,90.26
2022-11-29T10:18:30.178Z,90.23
2022-11-29T10:19:30.243Z,90.00
2022-11-29T10:20:30.411Z,89.55
2022-11-29T10:21:30.512Z,89.53
2022-11-29T10:22:30.674Z,89.55
2022-11-29T10:23:30.789Z,89.66
2022-11-29T10:24:30.913Z,89.64
2022-11-29T10:25:31.098Z,89.53
2022-11-29T10:26:35.201Z,89.53
2022-11-29T10:27:31.292Z,89.63
2022-11-29T10:28:31.425Z,89.46
2022-11-29T10:29:31.589Z,89.45
2022-11-29T10:30:31.863Z,89.65
2022-11-29T10:31:31.811Z,89.61
2022-11-29T10:32:31.972Z,89.60
2022-11-29T10:33:32.070Z,89.10
2022-11-29T10:34:32.207Z,88.71
2022-11-29T10:35:32.374Z,88.99
2022-11-29T10:36:32.470Z,88.97
2022-11-29T10:37:32.629Z,88.80
2022-11-29T10:38:32.846Z,88.77
2022-11-29T10:39:32.878Z,88.90
2022-11-29T10:40:33.071Z,89.11
2022-11-29T10:41:33.183Z,89.17
2022-11-29T10:42:33.278Z,89.09
2022-11-29T10:43:33.416Z,89.11
2022-11-29T10:44:33.587Z,89.20
2022-11-29T10:45:33.737Z,89.00
2022-11-29T10:46:33.821Z,88.92
2022-11-29T10:47:34.040Z,89.10
2022-11-29T10:48:34.121Z,89.30
2022-11-29T10:49:34.195Z,89.46
2022-11-29T10:50:34.408Z,89.55
2022-11-29T10:51:34.460Z,89.30
2022-11-29T10:52:34.596Z,89.19
2022-11-29T10:53:34.737Z,89.51
2022-11-29T10:54:34.880Z,89.46
2022-11-29T10:55:35.083Z,89.54
2022-11-29T10:56:35.165Z,89.53
2022-11-29T10:57:35.263Z,89.54
2022-11-29T10:58:35.416Z,89.72
2022-11-29T10:59:35.518Z,89.79
2022-11-29T11:00:35.707Z,89.85
2022-11-29T11:01:35.829Z,89.69
2022-11-29T11:02:35.913Z,89.87
2022-11-29T11:03:36.011Z,89.96
2022-11-29T11:04:36.169Z,89.95
2022-11-29T11:05:36.297Z,90.01
2022-11-29T11:06:36.395Z,89.90
2022-11-29T11:07:36.610Z,89.52
2022-11-29T11:08:36.642Z,88.88
2022-11-29T11:09:36.773Z,88.98
2022-11-29T11:10:37.067Z,89.12
2022-11-29T11:11:37.025Z,89.22
2022-11-29T11:12:37.186Z,89.08
2022-11-29T11:13:37.259Z,89.08
2022-11-29T11:14:37.388Z,88.63
2022-11-29T11:15:37.591Z,88.74
2022-11-29T11:16:37.970Z,88.77
2022-11-29T11:17:37.779Z,88.78
2022-11-29T11:18:37.919Z,88.79
2022-11-29T11:19:38.068Z,89.03
2022-11-29T11:20:38.228Z,88.75
2022-11-29T11:21:38.337Z,88.33
2022-11-29T11:22:38.469Z,88.58
2022-11-29T11:23:42.555Z,88.61
2022-11-29T11:24:38.727Z,88.53
2022-11-29T11:25:38.938Z,88.55
2022-11-29T11:26:38.978Z,88.56
2022-11-29T11:27:39.097Z,88.67
2022-11-29T11:28:39.226Z,88.58
2022-11-29T11:29:39.394Z,88.58
2022-11-29T11:30:39.524Z,88.68
2022-11-29T11:31:39.616Z,88.80
2022-11-29T11:32:39.775Z,88.55
2022-11-29T11:33:39.864Z,88.55
2022-11-29T11:34:39.995Z,88.50
2022-11-29T11:35:40.166Z,88.65
2022-11-29T11:36:40.297Z,88.72
2022-11-29T11:37:40.355Z,88.41
2022-11-29T11:38:40.494Z,88.33
2022-11-29T11:39:40.646Z,88.21
2022-11-29T11:40:40.839Z,88.06
2022-11-29T11:41:40.863Z,88.12
2022-11-29T11:42:41.007Z,87.86
2022-11-29T11:43:41.124Z,87.85
2022-11-29T11:44:48.802Z,88.12
2022-11-29T11:45:42.432Z,88.28
2022-11-29T11:46:41.609Z,88.15
2022-11-29T11:47:41.667Z,88.40
2022-11-29T11:48:41.763Z,88.01
2022-11-29T11:49:41.903Z,87.64
2022-11-29T11:50:42.307Z,87.70
2022-11-29T11:51:42.121Z,87.53
2022-11-29T11:52:46.242Z,87.46
2022-11-29T11:53:43.324Z,87.46
2022-11-29T11:54:42.576Z,87.71
2022-11-29T11:55:42.770Z,87.71
2022-11-29T11:56:42.670Z,87.51
2022-11-29T11:57:42.799Z,87.27
2022-11-29T11:58:42.931Z,87.15
2022-11-29T11:59:43.089Z,86.94
2022-11-29T12:01:44.298Z,86.92
2022-11-29T12:02:43.528Z,86.89
2022-11-29T12:03:43.593Z,86.78
2022-11-29T12:04:44.033Z,86.93
2022-11-29T12:05:46.311Z,86.91
2022-11-29T12:06:43.997Z,86.98
2022-11-29T12:08:09.053Z,87.17
2022-11-29T12:08:45.265Z,87.11
2022-11-29T12:09:44.410Z,87.33
2022-11-29T12:10:44.541Z,87.36
2022-11-29T12:11:44.612Z,87.32
2022-11-29T12:12:44.746Z,87.51
2022-11-29T12:13:44.907Z,87.39
2022-11-29T12:14:45.153Z,87.28
2022-11-29T12:15:45.340Z,87.30
2022-11-29T12:16:45.276Z,86.90
2022-11-29T12:17:45.407Z,86.92
2022-11-29T12:18:45.555Z,87.05
2022-11-29T12:19:45.684Z,86.93
2022-11-29T12:20:45.823Z,86.87
2022-11-29T12:21:45.924Z,86.93
2022-11-29T12:22:48.503Z,86.76
2022-11-29T12:23:46.175Z,86.67
2022-11-29T12:24:46.558Z,86.48
2022-11-29T12:25:46.613Z,86.61
2022-11-29T12:26:56.889Z,86.76
2022-11-29T12:27:47.702Z,86.76
2022-11-29T12:28:46.792Z,86.65
2022-11-29T12:29:46.930Z,86.25
2022-11-29T12:30:47.104Z,86.29
2022-11-29T12:31:47.195Z,86.44
2022-11-29T12:32:47.313Z,86.65
2022-11-29T12:33:47.394Z,86.86
2022-11-29T12:34:47.713Z,86.73
2022-11-29T12:35:47.667Z,86.63
2022-11-29T12:36:47.840Z,86.28
2022-11-29T12:37:47.933Z,86.45
2022-11-29T12:38:48.072Z,86.40
2022-11-29T12:39:48.200Z,86.38
2022-11-29T12:40:48.339Z,86.60
2022-11-29T12:41:53.835Z,86.70
2022-11-29T12:42:49.598Z,86.21
2022-11-29T12:43:48.728Z,86.58
2022-11-29T12:44:49.017Z,86.12
2022-11-29T12:45:48.979Z,86.28
2022-11-29T12:46:50.415Z,86.33
2022-11-29T12:47:52.018Z,86.29
2022-11-29T12:48:49.389Z,86.30
2022-11-29T12:49:49.518Z,86.15
2022-11-29T12:50:49.668Z,86.22
2022-11-29T12:51:49.806Z,86.28
2022-11-29T12:52:49.966Z,86.54
2022-11-29T12:53:50.088Z,86.57
2022-11-29T12:54:50.217Z,86.40
2022-11-29T12:55:50.312Z,86.54
2022-11-29T12:56:50.476Z,86.58